Terminal Aerodrome Forecast
Issued by NWS

Home | Current Version | Previous Version | Graphics & Text | Print | Product List | Glossary On
Versions: 1 2 3 4 5 6 7 8 9 10 11 12 13 14 15 16
000
FTUS43 KBIS 181100
TAFDIK
TAF
KDIK 181120Z 1812/1912 16011KT P6SM SCT120
     FM181700 17017G26KT P6SM SCT120
     FM190000 19010KT P6SM BKN070=

USA.gov is the U.S. government's official web portal to all federal, state and local government web resources and services.